sensor_id;sensor_type;location;lat;lon;timestamp;P1;durP1;ratioP1;P2;durP2;ratioP2
37157;SDS011;23050;51.776;22.638;2022-12-07T16:15:56;101.93;;;48.30;;
37157;SDS011;23050;51.776;22.638;2022-12-07T16:18:21;103.43;;;50.05;;
37157;SDS011;23050;51.776;22.638;2022-12-07T16:20:48;98.57;;;49.40;;
37157;SDS011;23050;51.776;22.638;2022-12-07T16:23:14;85.65;;;42.13;;
37157;SDS011;23050;51.776;22.638;2022-12-07T16:25:40;106.03;;;52.78;;
37157;SDS011;23050;51.776;22.638;2022-12-07T16:28:05;106.47;;;47.65;;
37157;SDS011;23050;51.776;22.638;2022-12-07T16:30:32;135.95;;;57.55;;
37157;SDS011;23050;51.776;22.638;2022-12-07T16:32:58;215.63;;;86.20;;
37157;SDS011;23050;51.776;22.638;2022-12-07T16:35:24;179.18;;;81.47;;
37157;SDS011;23050;51.776;22.638;2022-12-07T16:37:49;111.35;;;55.67;;
37157;SDS011;23050;51.776;22.638;2022-12-07T16:40:15;127.55;;;61.55;;
37157;SDS011;23050;51.776;22.638;2022-12-07T16:42:40;194.80;;;104.35;;
37157;SDS011;23050;51.776;22.638;2022-12-07T16:45:06;105.90;;;53.33;;
37157;SDS011;23050;51.776;22.638;2022-12-07T16:47:32;104.28;;;53.22;;
37157;SDS011;23050;51.776;22.638;2022-12-07T16:49:57;130.27;;;54.55;;
37157;SDS011;23050;51.776;22.638;2022-12-07T16:52:23;109.07;;;46.65;;
37157;SDS011;23050;51.776;22.638;2022-12-07T16:54:48;99.68;;;48.10;;
37157;SDS011;23050;51.776;22.638;2022-12-07T16:57:15;91.22;;;41.47;;
37157;SDS011;23050;51.776;22.638;2022-12-07T16:59:41;90.78;;;43.47;;
37157;SDS011;23050;51.776;22.638;2022-12-07T17:02:08;255.50;;;100.10;;
37157;SDS011;23050;51.776;22.638;2022-12-07T17:04:36;171.35;;;70.05;;
37157;SDS011;23050;51.776;22.638;2022-12-07T17:07:04;268.75;;;104.43;;
37157;SDS011;23050;51.776;22.638;2022-12-07T17:09:33;119.68;;;51.25;;
37157;SDS011;23050;51.776;22.638;2022-12-07T17:12:00;208.73;;;103.25;;
37157;SDS011;23050;51.776;22.638;2022-12-07T17:14:25;111.13;;;53.15;;
37157;SDS011;23050;51.776;22.638;2022-12-07T17:17:10;132.95;;;59.85;;
37157;SDS011;23050;51.776;22.638;2022-12-07T17:19:35;115.35;;;56.17;;
37157;SDS011;23050;51.776;22.638;2022-12-07T17:22:01;103.65;;;45.00;;
37157;SDS011;23050;51.776;22.638;2022-12-07T17:24:27;107.60;;;49.35;;
37157;SDS011;23050;51.776;22.638;2022-12-07T17:26:52;106.47;;;48.58;;
37157;SDS011;23050;51.776;22.638;2022-12-07T17:29:18;88.25;;;39.60;;
37157;SDS011;23050;51.776;22.638;2022-12-07T17:31:44;92.75;;;44.03;;
37157;SDS011;23050;51.776;22.638;2022-12-07T17:34:12;102.40;;;48.03;;
37157;SDS011;23050;51.776;22.638;2022-12-07T17:36:39;112.78;;;55.42;;
37157;SDS011;23050;51.776;22.638;2022-12-07T17:39:09;99.95;;;47.35;;
37157;SDS011;23050;51.776;22.638;2022-12-07T17:41:36;104.82;;;53.13;;
37157;SDS011;23050;51.776;22.638;2022-12-07T17:44:21;81.25;;;39.88;;
37157;SDS011;23050;51.776;22.638;2022-12-07T17:46:48;91.20;;;43.28;;
37157;SDS011;23050;51.776;22.638;2022-12-07T17:49:19;84.35;;;42.88;;
37157;SDS011;23050;51.776;22.638;2022-12-07T17:51:45;88.25;;;40.33;;
37157;SDS011;23050;51.776;22.638;2022-12-07T17:54:29;212.82;;;96.32;;
37157;SDS011;23050;51.776;22.638;2022-12-07T17:56:55;112.32;;;54.50;;
37157;SDS011;23050;51.776;22.638;2022-12-07T17:59:21;127.07;;;62.83;;
37157;SDS011;23050;51.776;22.638;2022-12-07T18:01:46;106.00;;;54.65;;
37157;SDS011;23050;51.776;22.638;2022-12-07T18:04:12;123.60;;;61.85;;
37157;SDS011;23050;51.776;22.638;2022-12-07T18:06:38;122.70;;;60.72;;
37157;SDS011;23050;51.776;22.638;2022-12-07T18:09:04;118.30;;;58.03;;
37157;SDS011;23050;51.776;22.638;2022-12-07T18:11:31;97.70;;;51.70;;
37157;SDS011;23050;51.776;22.638;2022-12-07T18:13:57;80.47;;;40.40;;
37157;SDS011;23050;51.776;22.638;2022-12-07T18:16:24;91.07;;;47.72;;
37157;SDS011;23050;51.776;22.638;2022-12-07T18:18:51;78.57;;;38.97;;
37157;SDS011;23050;51.776;22.638;2022-12-07T18:21:22;80.53;;;41.70;;
37157;SDS011;23050;51.776;22.638;2022-12-07T18:23:50;84.95;;;40.42;;
37157;SDS011;23050;51.776;22.638;2022-12-07T18:26:17;66.30;;;32.95;;
37157;SDS011;23050;51.776;22.638;2022-12-07T18:28:44;86.05;;;42.33;;
37157;SDS011;23050;51.776;22.638;2022-12-07T18:31:10;79.53;;;37.90;;
37157;SDS011;23050;51.776;22.638;2022-12-07T18:33:37;85.55;;;40.70;;
37157;SDS011;23050;51.776;22.638;2022-12-07T18:36:03;66.60;;;32.85;;
37157;SDS011;23050;51.776;22.638;2022-12-07T18:38:30;66.97;;;33.80;;
37157;SDS011;23050;51.776;22.638;2022-12-07T18:40:55;69.85;;;31.63;;
37157;SDS011;23050;51.776;22.638;2022-12-07T18:43:22;59.85;;;31.42;;
37157;SDS011;23050;51.776;22.638;2022-12-07T18:45:49;65.60;;;32.90;;
37157;SDS011;23050;51.776;22.638;2022-12-07T18:48:16;64.85;;;31.80;;
37157;SDS011;23050;51.776;22.638;2022-12-07T18:50:43;62.92;;;30.00;;
37157;SDS011;23050;51.776;22.638;2022-12-07T18:53:10;71.15;;;34.53;;
37157;SDS011;23050;51.776;22.638;2022-12-07T18:55:36;71.22;;;34.45;;
37157;SDS011;23050;51.776;22.638;2022-12-07T18:58:01;57.40;;;28.38;;
37157;SDS011;23050;51.776;22.638;2022-12-07T19:00:28;63.25;;;32.75;;
37157;SDS011;23050;51.776;22.638;2022-12-07T19:02:57;62.00;;;28.50;;
37157;SDS011;23050;51.776;22.638;2022-12-07T19:05:23;50.25;;;24.80;;
37157;SDS011;23050;51.776;22.638;2022-12-07T19:07:49;57.90;;;29.55;;
37157;SDS011;23050;51.776;22.638;2022-12-07T19:10:15;50.70;;;26.42;;
37157;SDS011;23050;51.776;22.638;2022-12-07T19:12:41;53.55;;;26.35;;
37157;SDS011;23050;51.776;22.638;2022-12-07T19:15:07;45.80;;;22.58;;
37157;SDS011;23050;51.776;22.638;2022-12-07T19:17:35;46.25;;;20.70;;
37157;SDS011;23050;51.776;22.638;2022-12-07T19:20:02;44.30;;;21.50;;
37157;SDS011;23050;51.776;22.638;2022-12-07T19:22:30;51.65;;;23.38;;
37157;SDS011;23050;51.776;22.638;2022-12-07T19:24:55;47.08;;;22.65;;
37157;SDS011;23050;51.776;22.638;2022-12-07T19:27:21;62.08;;;29.35;;
37157;SDS011;23050;51.776;22.638;2022-12-07T19:29:48;67.40;;;35.53;;
37157;SDS011;23050;51.776;22.638;2022-12-07T19:32:14;48.63;;;24.50;;
37157;SDS011;23050;51.776;22.638;2022-12-07T19:34:41;44.08;;;22.70;;
37157;SDS011;23050;51.776;22.638;2022-12-07T19:37:09;47.13;;;22.25;;
37157;SDS011;23050;51.776;22.638;2022-12-07T19:39:36;46.92;;;24.30;;
37157;SDS011;23050;51.776;22.638;2022-12-07T19:42:02;48.65;;;24.42;;
37157;SDS011;23050;51.776;22.638;2022-12-07T19:44:28;52.08;;;24.23;;
37157;SDS011;23050;51.776;22.638;2022-12-07T19:46:57;51.53;;;25.00;;
37157;SDS011;23050;51.776;22.638;2022-12-07T19:49:24;47.70;;;24.13;;
37157;SDS011;23050;51.776;22.638;2022-12-07T19:51:52;54.60;;;23.90;;
37157;SDS011;23050;51.776;22.638;2022-12-07T19:54:21;52.53;;;24.73;;
37157;SDS011;23050;51.776;22.638;2022-12-07T19:56:48;45.35;;;23.58;;
37157;SDS011;23050;51.776;22.638;2022-12-07T19:59:15;55.58;;;26.83;;
37157;SDS011;23050;51.776;22.638;2022-12-07T20:01:42;58.13;;;29.77;;
37157;SDS011;23050;51.776;22.638;2022-12-07T20:04:09;43.55;;;21.20;;
37157;SDS011;23050;51.776;22.638;2022-12-07T20:06:49;50.03;;;24.67;;
37157;SDS011;23050;51.776;22.638;2022-12-07T20:09:17;49.15;;;23.10;;
37157;SDS011;23050;51.776;22.638;2022-12-07T20:11:43;53.58;;;24.88;;
37157;SDS011;23050;51.776;22.638;2022-12-07T20:14:28;49.67;;;23.67;;
37157;SDS011;23050;51.776;22.638;2022-12-07T20:16:56;59.97;;;26.13;;
37157;SDS011;23050;51.776;22.638;2022-12-07T20:19:22;81.40;;;32.35;;
37157;SDS011;23050;51.776;22.638;2022-12-07T20:21:48;41.08;;;19.95;;
37157;SDS011;23050;51.776;22.638;2022-12-07T20:24:16;38.72;;;20.88;;
37157;SDS011;23050;51.776;22.638;2022-12-07T20:26:44;51.65;;;25.95;;
37157;SDS011;23050;51.776;22.638;2022-12-07T20:29:12;53.88;;;25.58;;
37157;SDS011;23050;51.776;22.638;2022-12-07T20:31:39;55.58;;;26.27;;
37157;SDS011;23050;51.776;22.638;2022-12-07T20:34:06;49.85;;;24.73;;
37157;SDS011;23050;51.776;22.638;2022-12-07T20:36:31;73.97;;;34.67;;
37157;SDS011;23050;51.776;22.638;2022-12-07T20:38:58;49.30;;;24.42;;
37157;SDS011;23050;51.776;22.638;2022-12-07T20:41:25;62.38;;;27.90;;
37157;SDS011;23050;51.776;22.638;2022-12-07T20:44:10;100.68;;;42.97;;
37157;SDS011;23050;51.776;22.638;2022-12-07T20:46:37;44.25;;;20.98;;
37157;SDS011;23050;51.776;22.638;2022-12-07T20:49:02;42.83;;;21.40;;
37157;SDS011;23050;51.776;22.638;2022-12-07T20:51:28;43.45;;;20.38;;
37157;SDS011;23050;51.776;22.638;2022-12-07T20:53:54;39.40;;;18.23;;
37157;SDS011;23050;51.776;22.638;2022-12-07T20:56:22;63.20;;;26.35;;
37157;SDS011;23050;51.776;22.638;2022-12-07T20:58:51;46.10;;;19.50;;
37157;SDS011;23050;51.776;22.638;2022-12-07T21:01:17;54.38;;;21.05;;
37157;SDS011;23050;51.776;22.638;2022-12-07T21:03:43;48.28;;;20.27;;
37157;SDS011;23050;51.776;22.638;2022-12-07T21:06:15;46.88;;;21.17;;
37157;SDS011;23050;51.776;22.638;2022-12-07T21:08:42;50.70;;;21.75;;
37157;SDS011;23050;51.776;22.638;2022-12-07T21:11:13;54.67;;;22.27;;
37157;SDS011;23050;51.776;22.638;2022-12-07T21:13:40;55.33;;;22.38;;
37157;SDS011;23050;51.776;22.638;2022-12-07T21:16:10;54.42;;;22.00;;
37157;SDS011;23050;51.776;22.638;2022-12-07T21:18:37;55.50;;;26.80;;
37157;SDS011;23050;51.776;22.638;2022-12-07T21:21:04;56.85;;;28.25;;
37157;SDS011;23050;51.776;22.638;2022-12-07T21:23:33;50.45;;;20.52;;
37157;SDS011;23050;51.776;22.638;2022-12-07T21:26:00;36.70;;;18.90;;
37157;SDS011;23050;51.776;22.638;2022-12-07T21:28:26;41.40;;;20.20;;
37157;SDS011;23050;51.776;22.638;2022-12-07T21:30:55;38.55;;;18.27;;
37157;SDS011;23050;51.776;22.638;2022-12-07T21:33:22;38.22;;;17.55;;
37157;SDS011;23050;51.776;22.638;2022-12-07T21:35:48;41.13;;;19.88;;
37157;SDS011;23050;51.776;22.638;2022-12-07T21:38:13;41.85;;;21.60;;
37157;SDS011;23050;51.776;22.638;2022-12-07T21:40:39;64.07;;;27.30;;
37157;SDS011;23050;51.776;22.638;2022-12-07T21:43:04;42.78;;;19.73;;
37157;SDS011;23050;51.776;22.638;2022-12-07T21:45:33;37.05;;;17.95;;
37157;SDS011;23050;51.776;22.638;2022-12-07T21:47:59;39.50;;;17.15;;
37157;SDS011;23050;51.776;22.638;2022-12-07T21:50:24;45.25;;;19.05;;
37157;SDS011;23050;51.776;22.638;2022-12-07T21:52:50;39.92;;;17.65;;
37157;SDS011;23050;51.776;22.638;2022-12-07T21:55:15;33.83;;;16.52;;
37157;SDS011;23050;51.776;22.638;2022-12-07T21:57:41;29.05;;;16.40;;
37157;SDS011;23050;51.776;22.638;2022-12-07T22:00:07;39.28;;;19.10;;
37157;SDS011;23050;51.776;22.638;2022-12-07T22:02:33;29.35;;;15.98;;
37157;SDS011;23050;51.776;22.638;2022-12-07T22:04:59;26.15;;;13.68;;
37157;SDS011;23050;51.776;22.638;2022-12-07T22:07:24;28.45;;;15.02;;
37157;SDS011;23050;51.776;22.638;2022-12-07T22:09:50;27.75;;;14.82;;
37157;SDS011;23050;51.776;22.638;2022-12-07T22:12:15;29.08;;;15.40;;
37157;SDS011;23050;51.776;22.638;2022-12-07T22:14:41;29.70;;;14.15;;
37157;SDS011;23050;51.776;22.638;2022-12-07T22:17:25;25.95;;;14.65;;
37157;SDS011;23050;51.776;22.638;2022-12-07T22:19:52;30.75;;;15.80;;
37157;SDS011;23050;51.776;22.638;2022-12-07T22:22:18;27.40;;;13.90;;
37157;SDS011;23050;51.776;22.638;2022-12-07T22:24:43;26.75;;;14.13;;
37157;SDS011;23050;51.776;22.638;2022-12-07T22:27:09;23.63;;;12.15;;
37157;SDS011;23050;51.776;22.638;2022-12-07T22:29:35;23.67;;;12.05;;
37157;SDS011;23050;51.776;22.638;2022-12-07T22:32:00;25.55;;;12.27;;
37157;SDS011;23050;51.776;22.638;2022-12-07T22:34:26;20.38;;;11.88;;
37157;SDS011;23050;51.776;22.638;2022-12-07T22:36:51;21.95;;;10.95;;
37157;SDS011;23050;51.776;22.638;2022-12-07T22:39:17;20.20;;;11.52;;
37157;SDS011;23050;51.776;22.638;2022-12-07T22:41:42;23.92;;;12.07;;
37157;SDS011;23050;51.776;22.638;2022-12-07T22:44:08;21.95;;;11.10;;
37157;SDS011;23050;51.776;22.638;2022-12-07T22:46:34;23.10;;;11.35;;
37157;SDS011;23050;51.776;22.638;2022-12-07T22:49:01;20.85;;;12.60;;
37157;SDS011;23050;51.776;22.638;2022-12-07T22:51:28;23.60;;;13.32;;
37157;SDS011;23050;51.776;22.638;2022-12-07T22:53:59;21.35;;;11.20;;
37157;SDS011;23050;51.776;22.638;2022-12-07T22:56:26;23.85;;;11.40;;
37157;SDS011;23050;51.776;22.638;2022-12-07T22:58:53;22.63;;;12.48;;
37157;SDS011;23050;51.776;22.638;2022-12-07T23:01:19;23.90;;;11.93;;
37157;SDS011;23050;51.776;22.638;2022-12-07T23:03:46;26.20;;;12.98;;
37157;SDS011;23050;51.776;22.638;2022-12-07T23:06:19;25.63;;;13.20;;
37157;SDS011;23050;51.776;22.638;2022-12-07T23:08:48;28.15;;;14.35;;
37157;SDS011;23050;51.776;22.638;2022-12-07T23:11:15;26.27;;;14.00;;
37157;SDS011;23050;51.776;22.638;2022-12-07T23:14:02;25.90;;;14.68;;
37157;SDS011;23050;51.776;22.638;2022-12-07T23:16:29;28.48;;;13.75;;
37157;SDS011;23050;51.776;22.638;2022-12-07T23:18:54;26.60;;;13.95;;
37157;SDS011;23050;51.776;22.638;2022-12-07T23:21:20;25.15;;;14.15;;
37157;SDS011;23050;51.776;22.638;2022-12-07T23:23:46;26.00;;;12.95;;
37157;SDS011;23050;51.776;22.638;2022-12-07T23:26:11;29.63;;;15.20;;
37157;SDS011;23050;51.776;22.638;2022-12-07T23:28:37;27.55;;;13.57;;
37157;SDS011;23050;51.776;22.638;2022-12-07T23:31:03;24.92;;;13.85;;
37157;SDS011;23050;51.776;22.638;2022-12-07T23:33:32;29.73;;;14.93;;
37157;SDS011;23050;51.776;22.638;2022-12-07T23:36:11;27.38;;;15.63;;
37157;SDS011;23050;51.776;22.638;2022-12-07T23:38:37;31.25;;;14.20;;
37157;SDS011;23050;51.776;22.638;2022-12-07T23:41:04;29.23;;;15.95;;
37157;SDS011;23050;51.776;22.638;2022-12-07T23:43:35;26.85;;;15.63;;
37157;SDS011;23050;51.776;22.638;2022-12-07T23:46:01;25.83;;;14.15;;
37157;SDS011;23050;51.776;22.638;2022-12-07T23:48:27;25.70;;;14.45;;
37157;SDS011;23050;51.776;22.638;2022-12-07T23:50:57;29.75;;;13.25;;
37157;SDS011;23050;51.776;22.638;2022-12-07T23:53:23;31.65;;;16.77;;
37157;SDS011;23050;51.776;22.638;2022-12-07T23:55:52;31.00;;;15.07;;
37157;SDS011;23050;51.776;22.638;2022-12-07T23:58:17;29.98;;;14.77;;
